sensor_id;sensor_type;location;lat;lon;timestamp;pressure;altitude;pressure_sealevel;temperature;humidity
39129;BME280;24864;49.940;19.770;2022-10-16T00:02:24;98228.34;;;12.09;100.00
39129;BME280;24864;49.940;19.770;2022-10-16T00:04:52;98230.03;;;11.98;100.00
39129;BME280;24864;49.940;19.770;2022-10-16T00:07:21;98241.88;;;11.89;100.00
39129;BME280;24864;49.940;19.770;2022-10-16T00:09:49;98241.72;;;11.82;100.00
39129;BME280;24864;49.940;19.770;2022-10-16T00:12:17;98233.50;;;11.82;100.00
39129;BME280;24864;49.940;19.770;2022-10-16T00:14:45;98248.25;;;11.94;100.00
39129;BME280;24864;49.940;19.770;2022-10-16T00:17:15;98247.84;;;11.79;100.00
39129;BME280;24864;49.940;19.770;2022-10-16T00:19:42;98250.94;;;11.78;100.00
39129;BME280;24864;49.940;19.770;2022-10-16T00:22:11;98252.19;;;11.80;100.00
39129;BME280;24864;49.940;19.770;2022-10-16T00:24:38;98257.75;;;11.84;100.00
39129;BME280;24864;49.940;19.770;2022-10-16T00:27:06;98259.66;;;11.83;100.00
39129;BME280;24864;49.940;19.770;2022-10-16T00:29:34;98258.34;;;11.77;100.00
39129;BME280;24864;49.940;19.770;2022-10-16T00:32:02;98261.25;;;11.84;100.00
39129;BME280;24864;49.940;19.770;2022-10-16T00:34:32;98263.28;;;12.00;100.00
39129;BME280;24864;49.940;19.770;2022-10-16T00:36:59;98259.19;;;11.94;100.00
39129;BME280;24864;49.940;19.770;2022-10-16T00:39:27;98267.44;;;11.81;100.00
39129;BME280;24864;49.940;19.770;2022-10-16T00:41:55;98275.19;;;11.79;100.00
39129;BME280;24864;49.940;19.770;2022-10-16T00:44:44;98272.72;;;11.74;100.00
39129;BME280;24864;49.940;19.770;2022-10-16T00:47:17;98281.72;;;11.90;100.00
39129;BME280;24864;49.940;19.770;2022-10-16T00:49:50;98287.44;;;11.85;100.00
39129;BME280;24864;49.940;19.770;2022-10-16T00:52:19;98283.19;;;11.72;100.00
39129;BME280;24864;49.940;19.770;2022-10-16T00:54:49;98269.31;;;11.65;100.00
39129;BME280;24864;49.940;19.770;2022-10-16T00:57:17;98282.25;;;11.80;100.00
39129;BME280;24864;49.940;19.770;2022-10-16T00:59:45;98279.06;;;11.78;100.00
39129;BME280;24864;49.940;19.770;2022-10-16T01:02:15;98277.47;;;11.77;100.00
39129;BME280;24864;49.940;19.770;2022-10-16T01:04:44;98281.00;;;11.78;100.00
39129;BME280;24864;49.940;19.770;2022-10-16T01:07:26;98281.44;;;11.80;100.00
39129;BME280;24864;49.940;19.770;2022-10-16T01:10:06;98288.38;;;11.77;100.00
39129;BME280;24864;49.940;19.770;2022-10-16T01:12:40;98274.34;;;11.63;100.00
39129;BME280;24864;49.940;19.770;2022-10-16T01:15:18;98284.78;;;11.73;100.00
39129;BME280;24864;49.940;19.770;2022-10-16T01:17:53;98270.50;;;11.51;100.00
39129;BME280;24864;49.940;19.770;2022-10-16T01:20:27;98277.31;;;11.57;100.00
39129;BME280;24864;49.940;19.770;2022-10-16T01:23:02;98270.97;;;11.53;100.00
39129;BME280;24864;49.940;19.770;2022-10-16T01:25:43;98271.41;;;11.55;100.00
39129;BME280;24864;49.940;19.770;2022-10-16T01:28:19;98283.22;;;11.60;100.00
39129;BME280;24864;49.940;19.770;2022-10-16T01:30:50;98281.63;;;11.58;100.00
39129;BME280;24864;49.940;19.770;2022-10-16T01:33:23;98277.19;;;11.66;100.00
39129;BME280;24864;49.940;19.770;2022-10-16T01:35:53;98282.03;;;11.73;100.00
39129;BME280;24864;49.940;19.770;2022-10-16T01:38:28;98288.06;;;11.79;100.00
39129;BME280;24864;49.940;19.770;2022-10-16T01:41:00;98291.03;;;11.73;100.00
39129;BME280;24864;49.940;19.770;2022-10-16T01:43:34;98297.91;;;11.83;100.00
39129;BME280;24864;49.940;19.770;2022-10-16T01:46:05;98293.56;;;11.95;100.00
39129;BME280;24864;49.940;19.770;2022-10-16T01:48:34;98298.34;;;11.98;100.00
39129;BME280;24864;49.940;19.770;2022-10-16T01:51:06;98299.94;;;11.99;100.00
39129;BME280;24864;49.940;19.770;2022-10-16T01:53:35;98293.44;;;12.03;100.00
39129;BME280;24864;49.940;19.770;2022-10-16T01:56:05;98291.66;;;12.11;100.00
39129;BME280;24864;49.940;19.770;2022-10-16T01:58:40;98293.19;;;12.25;100.00
39129;BME280;24864;49.940;19.770;2022-10-16T02:04:04;98302.06;;;12.21;100.00
39129;BME280;24864;49.940;19.770;2022-10-16T02:06:35;98298.72;;;12.12;100.00
39129;BME280;24864;49.940;19.770;2022-10-16T02:09:03;98302.59;;;12.11;100.00
39129;BME280;24864;49.940;19.770;2022-10-16T02:11:31;98300.41;;;12.17;100.00
39129;BME280;24864;49.940;19.770;2022-10-16T02:14:04;98307.19;;;12.07;100.00
39129;BME280;24864;49.940;19.770;2022-10-16T02:16:33;98306.75;;;12.05;100.00
39129;BME280;24864;49.940;19.770;2022-10-16T02:19:02;98307.00;;;12.00;100.00
39129;BME280;24864;49.940;19.770;2022-10-16T02:21:35;98303.03;;;11.97;100.00
39129;BME280;24864;49.940;19.770;2022-10-16T02:24:10;98301.06;;;11.98;100.00
39129;BME280;24864;49.940;19.770;2022-10-16T02:26:47;98294.94;;;12.17;100.00
39129;BME280;24864;49.940;19.770;2022-10-16T02:29:21;98295.53;;;12.10;100.00
39129;BME280;24864;49.940;19.770;2022-10-16T02:31:54;98298.22;;;11.94;100.00
39129;BME280;24864;49.940;19.770;2022-10-16T02:34:23;98288.38;;;11.77;100.00
39129;BME280;24864;49.940;19.770;2022-10-16T02:36:54;98294.75;;;11.81;100.00
39129;BME280;24864;49.940;19.770;2022-10-16T02:39:23;98287.72;;;11.80;100.00
39129;BME280;24864;49.940;19.770;2022-10-16T02:41:51;98294.75;;;11.81;100.00
39129;BME280;24864;49.940;19.770;2022-10-16T02:44:21;98295.19;;;11.83;100.00
39129;BME280;24864;49.940;19.770;2022-10-16T02:46:49;98289.25;;;11.94;100.00
39129;BME280;24864;49.940;19.770;2022-10-16T02:49:17;98300.72;;;11.71;100.00
39129;BME280;24864;49.940;19.770;2022-10-16T02:51:45;98294.91;;;11.72;100.00
39129;BME280;24864;49.940;19.770;2022-10-16T02:54:13;98299.13;;;11.70;100.00
39129;BME280;24864;49.940;19.770;2022-10-16T02:56:40;98302.91;;;11.65;100.00
39129;BME280;24864;49.940;19.770;2022-10-16T02:59:08;98309.88;;;11.63;100.00
39129;BME280;24864;49.940;19.770;2022-10-16T03:01:38;98301.22;;;11.61;100.00
39129;BME280;24864;49.940;19.770;2022-10-16T03:04:06;98306.88;;;11.68;100.00
39129;BME280;24864;49.940;19.770;2022-10-16T03:06:34;98302.56;;;11.67;100.00
39129;BME280;24864;49.940;19.770;2022-10-16T03:09:02;98297.13;;;11.54;100.00
39129;BME280;24864;49.940;19.770;2022-10-16T03:11:30;98303.06;;;11.56;100.00
39129;BME280;24864;49.940;19.770;2022-10-16T03:13:58;98300.91;;;11.50;100.00
39129;BME280;24864;49.940;19.770;2022-10-16T03:16:26;98291.97;;;11.37;100.00
39129;BME280;24864;49.940;19.770;2022-10-16T03:18:55;98291.75;;;11.30;100.00
39129;BME280;24864;49.940;19.770;2022-10-16T03:21:23;98298.59;;;11.23;100.00
39129;BME280;24864;49.940;19.770;2022-10-16T03:23:51;98285.16;;;11.18;100.00
39129;BME280;24864;49.940;19.770;2022-10-16T03:26:19;98302.00;;;11.20;100.00
39129;BME280;24864;49.940;19.770;2022-10-16T03:28:47;98305.44;;;11.17;100.00
39129;BME280;24864;49.940;19.770;2022-10-16T03:31:15;98308.38;;;11.24;100.00
39129;BME280;24864;49.940;19.770;2022-10-16T03:33:43;98317.91;;;11.18;100.00
39129;BME280;24864;49.940;19.770;2022-10-16T03:36:12;98315.91;;;11.03;100.00
39129;BME280;24864;49.940;19.770;2022-10-16T03:38:40;98322.25;;;11.07;100.00
39129;BME280;24864;49.940;19.770;2022-10-16T03:41:08;98335.25;;;10.98;100.00
39129;BME280;24864;49.940;19.770;2022-10-16T03:43:36;98342.50;;;10.93;100.00
39129;BME280;24864;49.940;19.770;2022-10-16T03:46:04;98334.09;;;10.86;100.00
39129;BME280;24864;49.940;19.770;2022-10-16T03:48:32;98336.63;;;10.91;100.00
39129;BME280;24864;49.940;19.770;2022-10-16T03:51:00;98342.75;;;10.88;100.00
39129;BME280;24864;49.940;19.770;2022-10-16T03:53:30;98346.84;;;10.95;100.00
39129;BME280;24864;49.940;19.770;2022-10-16T03:55:58;98348.91;;;10.98;100.00
39129;BME280;24864;49.940;19.770;2022-10-16T03:58:26;98350.94;;;11.01;100.00
39129;BME280;24864;49.940;19.770;2022-10-16T04:00:53;98348.19;;;11.13;100.00
39129;BME280;24864;49.940;19.770;2022-10-16T04:03:22;98352.16;;;11.16;100.00
39129;BME280;24864;49.940;19.770;2022-10-16T04:05:50;98353.88;;;11.20;100.00
39129;BME280;24864;49.940;19.770;2022-10-16T04:08:18;98355.69;;;11.29;100.00
39129;BME280;24864;49.940;19.770;2022-10-16T04:10:47;98368.44;;;11.24;100.00
39129;BME280;24864;49.940;19.770;2022-10-16T04:13:15;98360.81;;;11.18;100.00
39129;BME280;24864;49.940;19.770;2022-10-16T04:15:44;98372.44;;;11.15;100.00
39129;BME280;24864;49.940;19.770;2022-10-16T04:18:13;98365.38;;;11.14;100.00
39129;BME280;24864;49.940;19.770;2022-10-16T04:20:40;98360.03;;;11.05;100.00
39129;BME280;24864;49.940;19.770;2022-10-16T04:23:08;98354.78;;;11.00;100.00
39129;BME280;24864;49.940;19.770;2022-10-16T04:25:36;98359.91;;;11.14;100.00
39129;BME280;24864;49.940;19.770;2022-10-16T04:28:05;98366.28;;;11.05;100.00
39129;BME280;24864;49.940;19.770;2022-10-16T04:30:33;98360.00;;;10.92;100.00
39129;BME280;24864;49.940;19.770;2022-10-16T04:33:01;98362.75;;;10.92;100.00
39129;BME280;24864;49.940;19.770;2022-10-16T04:35:29;98360.94;;;10.72;100.00
39129;BME280;24864;49.940;19.770;2022-10-16T04:37:57;98372.03;;;10.67;100.00
39129;BME280;24864;49.940;19.770;2022-10-16T04:40:25;98363.88;;;10.67;100.00
39129;BME280;24864;49.940;19.770;2022-10-16T04:42:53;98365.25;;;10.85;100.00
39129;BME280;24864;49.940;19.770;2022-10-16T04:45:22;98367.06;;;10.81;100.00
39129;BME280;24864;49.940;19.770;2022-10-16T04:47:50;98375.72;;;10.71;100.00
39129;BME280;24864;49.940;19.770;2022-10-16T04:50:18;98362.06;;;10.71;100.00
39129;BME280;24864;49.940;19.770;2022-10-16T04:52:46;98373.19;;;10.66;100.00
39129;BME280;24864;49.940;19.770;2022-10-16T04:55:14;98372.84;;;10.67;100.00
39129;BME280;24864;49.940;19.770;2022-10-16T04:57:42;98375.22;;;10.56;100.00
39129;BME280;24864;49.940;19.770;2022-10-16T05:00:10;98368.88;;;10.52;100.00
39129;BME280;24864;49.940;19.770;2022-10-16T05:02:40;98377.50;;;10.67;100.00
39129;BME280;24864;49.940;19.770;2022-10-16T05:05:08;98372.09;;;10.79;100.00
39129;BME280;24864;49.940;19.770;2022-10-16T05:07:36;98379.09;;;10.68;100.00
39129;BME280;24864;49.940;19.770;2022-10-16T05:10:04;98360.69;;;10.65;100.00
39129;BME280;24864;49.940;19.770;2022-10-16T05:12:32;98376.94;;;10.61;100.00
39129;BME280;24864;49.940;19.770;2022-10-16T05:15:00;98377.97;;;10.69;100.00
39129;BME280;24864;49.940;19.770;2022-10-16T05:17:28;98373.41;;;10.60;100.00
39129;BME280;24864;49.940;19.770;2022-10-16T05:19:57;98376.81;;;10.57;100.00
39129;BME280;24864;49.940;19.770;2022-10-16T05:22:25;98381.59;;;10.60;100.00
39129;BME280;24864;49.940;19.770;2022-10-16T05:24:53;98382.72;;;10.47;100.00
39129;BME280;24864;49.940;19.770;2022-10-16T05:27:21;98376.56;;;10.50;100.00
39129;BME280;24864;49.940;19.770;2022-10-16T05:29:50;98376.38;;;10.68;100.00
39129;BME280;24864;49.940;19.770;2022-10-16T05:32:18;98378.91;;;10.85;100.00
39129;BME280;24864;49.940;19.770;2022-10-16T05:34:46;98340.47;;;10.66;100.00
39129;BME280;24864;49.940;19.770;2022-10-16T05:37:16;98395.84;;;10.91;100.00
39129;BME280;24864;49.940;19.770;2022-10-16T05:39:44;98380.81;;;10.85;100.00
39129;BME280;24864;49.940;19.770;2022-10-16T05:42:12;98380.28;;;10.91;100.00
39129;BME280;24864;49.940;19.770;2022-10-16T05:44:39;98388.91;;;10.93;100.00
39129;BME280;24864;49.940;19.770;2022-10-16T05:47:07;98389.59;;;10.90;100.00
39129;BME280;24864;49.940;19.770;2022-10-16T05:49:35;98396.19;;;10.89;100.00
39129;BME280;24864;49.940;19.770;2022-10-16T05:52:07;98392.56;;;10.98;100.00
39129;BME280;24864;49.940;19.770;2022-10-16T05:54:36;98391.41;;;10.99;100.00
39129;BME280;24864;49.940;19.770;2022-10-16T05:57:04;98394.59;;;11.01;100.00
39129;BME280;24864;49.940;19.770;2022-10-16T05:59:33;98396.19;;;11.02;100.00
39129;BME280;24864;49.940;19.770;2022-10-16T06:02:01;98394.59;;;11.01;100.00
39129;BME280;24864;49.940;19.770;2022-10-16T06:04:29;98395.47;;;10.92;100.00
39129;BME280;24864;49.940;19.770;2022-10-16T06:06:58;98393.44;;;10.89;100.00
39129;BME280;24864;49.940;19.770;2022-10-16T06:09:26;98402.19;;;10.83;100.00
39129;BME280;24864;49.940;19.770;2022-10-16T06:11:56;98406.63;;;10.87;100.00
39129;BME280;24864;49.940;19.770;2022-10-16T06:14:24;98419.25;;;10.92;100.00
39129;BME280;24864;49.940;19.770;2022-10-16T06:16:52;98417.78;;;10.95;100.00
39129;BME280;24864;49.940;19.770;2022-10-16T06:19:20;98425.97;;;11.07;100.00
39129;BME280;24864;49.940;19.770;2022-10-16T06:21:48;98423.25;;;11.19;100.00
39129;BME280;24864;49.940;19.770;2022-10-16T06:24:15;98428.28;;;11.30;100.00
39129;BME280;24864;49.940;19.770;2022-10-16T06:26:43;98432.34;;;11.36;100.00
39129;BME280;24864;49.940;19.770;2022-10-16T06:29:12;98439.63;;;11.44;100.00
39129;BME280;24864;49.940;19.770;2022-10-16T06:31:41;98444.84;;;11.62;100.00
39129;BME280;24864;49.940;19.770;2022-10-16T06:34:09;98446.41;;;11.87;100.00
39129;BME280;24864;49.940;19.770;2022-10-16T06:36:38;98447.41;;;11.95;100.00
39129;BME280;24864;49.940;19.770;2022-10-16T06:39:06;98448.09;;;11.92;100.00
39129;BME280;24864;49.940;19.770;2022-10-16T06:41:35;98455.28;;;11.97;100.00
39129;BME280;24864;49.940;19.770;2022-10-16T06:44:05;98442.94;;;12.03;100.00
39129;BME280;24864;49.940;19.770;2022-10-16T06:46:34;98449.13;;;12.00;100.00
39129;BME280;24864;49.940;19.770;2022-10-16T06:49:02;98459.56;;;12.10;100.00
39129;BME280;24864;49.940;19.770;2022-10-16T06:51:30;98469.00;;;12.13;100.00
39129;BME280;24864;49.940;19.770;2022-10-16T06:54:06;98474.16;;;12.14;100.00
39129;BME280;24864;49.940;19.770;2022-10-16T06:56:34;98474.78;;;12.24;100.00
39129;BME280;24864;49.940;19.770;2022-10-16T06:59:03;98476.59;;;12.32;100.00
39129;BME280;24864;49.940;19.770;2022-10-16T07:01:32;98476.59;;;12.32;100.00
39129;BME280;24864;49.940;19.770;2022-10-16T07:04:01;98475.56;;;12.36;100.00
39129;BME280;24864;49.940;19.770;2022-10-16T07:06:31;98476.78;;;12.39;100.00
39129;BME280;24864;49.940;19.770;2022-10-16T07:09:02;98485.44;;;12.41;100.00
39129;BME280;24864;49.940;19.770;2022-10-16T07:11:31;98484.75;;;12.44;100.00
39129;BME280;24864;49.940;19.770;2022-10-16T07:13:58;98471.00;;;12.57;100.00
39129;BME280;24864;49.940;19.770;2022-10-16T07:16:28;98475.91;;;12.79;100.00
39129;BME280;24864;49.940;19.770;2022-10-16T07:18:56;98467.47;;;13.00;100.00
39129;BME280;24864;49.940;19.770;2022-10-16T07:21:30;98479.38;;;13.08;100.00
39129;BME280;24864;49.940;19.770;2022-10-16T07:24:02;98482.56;;;13.10;100.00
39129;BME280;24864;49.940;19.770;2022-10-16T07:26:33;98485.91;;;13.20;100.00
39129;BME280;24864;49.940;19.770;2022-10-16T07:29:02;98491.06;;;13.37;100.00
39129;BME280;24864;49.940;19.770;2022-10-16T07:31:31;98489.13;;;13.54;100.00
39129;BME280;24864;49.940;19.770;2022-10-16T07:34:00;98492.19;;;13.68;100.00
39129;BME280;24864;49.940;19.770;2022-10-16T07:36:29;98487.19;;;13.90;100.00
39129;BME280;24864;49.940;19.770;2022-10-16T07:38:57;98493.59;;;14.13;100.00
39129;BME280;24864;49.940;19.770;2022-10-16T07:41:26;98492.41;;;14.34;100.00
39129;BME280;24864;49.940;19.770;2022-10-16T07:43:55;98493.47;;;14.65;100.00
39129;BME280;24864;49.940;19.770;2022-10-16T07:46:24;98486.22;;;14.76;100.00
39129;BME280;24864;49.940;19.770;2022-10-16T07:48:52;98483.84;;;14.75;100.00
39129;BME280;24864;49.940;19.770;2022-10-16T07:51:21;98500.50;;;14.86;100.00
39129;BME280;24864;49.940;19.770;2022-10-16T07:53:52;98506.81;;;14.86;100.00
39129;BME280;24864;49.940;19.770;2022-10-16T07:56:21;98508.03;;;14.89;100.00
39129;BME280;24864;49.940;19.770;2022-10-16T07:58:49;98511.38;;;14.78;100.00
39129;BME280;24864;49.940;19.770;2022-10-16T08:01:18;98517.34;;;14.65;100.00
39129;BME280;24864;49.940;19.770;2022-10-16T08:03:48;98515.84;;;14.67;100.00
39129;BME280;24864;49.940;19.770;2022-10-16T08:06:17;98508.91;;;14.73;100.00
39129;BME280;24864;49.940;19.770;2022-10-16T08:08:54;98512.81;;;14.72;100.00
39129;BME280;24864;49.940;19.770;2022-10-16T08:11:22;98512.09;;;14.75;100.00
39129;BME280;24864;49.940;19.770;2022-10-16T08:13:50;98513.59;;;14.92;100.00
39129;BME280;24864;49.940;19.770;2022-10-16T08:16:18;98523.63;;;15.04;100.00
39129;BME280;24864;49.940;19.770;2022-10-16T08:18:47;98528.94;;;15.17;100.00
39129;BME280;24864;49.940;19.770;2022-10-16T08:21:16;98529.91;;;15.28;100.00
39129;BME280;24864;49.940;19.770;2022-10-16T08:23:47;98524.91;;;15.34;100.00
39129;BME280;24864;49.940;19.770;2022-10-16T08:26:24;98530.56;;;15.45;100.00
39129;BME280;24864;49.940;19.770;2022-10-16T08:28:53;98538.41;;;15.42;100.00
39129;BME280;24864;49.940;19.770;2022-10-16T08:31:22;98539.38;;;15.54;100.00
39129;BME280;24864;49.940;19.770;2022-10-16T08:33:50;98536.28;;;15.59;100.00
39129;BME280;24864;49.940;19.770;2022-10-16T08:36:19;98537.38;;;15.78;100.00
39129;BME280;24864;49.940;19.770;2022-10-16T08:38:47;98533.75;;;15.97;100.00
39129;BME280;24864;49.940;19.770;2022-10-16T08:44:35;98547.03;;;16.48;100.00
39129;BME280;24864;49.940;19.770;2022-10-16T08:47:11;98549.69;;;16.72;100.00
39129;BME280;24864;49.940;19.770;2022-10-16T08:49:48;98542.94;;;17.03;100.00
39129;BME280;24864;49.940;19.770;2022-10-16T08:52:22;98536.19;;;17.34;100.00
39129;BME280;24864;49.940;19.770;2022-10-16T08:54:53;98550.56;;;17.58;100.00
39129;BME280;24864;49.940;19.770;2022-10-16T08:57:25;98555.03;;;17.74;100.00
39129;BME280;24864;49.940;19.770;2022-10-16T08:59:57;98546.44;;;17.86;100.00
39129;BME280;24864;49.940;19.770;2022-10-16T09:02:32;98551.31;;;18.04;100.00
39129;BME280;24864;49.940;19.770;2022-10-16T09:05:18;98550.88;;;18.02;100.00
39129;BME280;24864;49.940;19.770;2022-10-16T09:07:54;98551.94;;;17.86;100.00
39129;BME280;24864;49.940;19.770;2022-10-16T09:10:34;98550.88;;;17.94;100.00
39129;BME280;24864;49.940;19.770;2022-10-16T09:13:14;98557.97;;;17.99;100.00
39129;BME280;24864;49.940;19.770;2022-10-16T09:15:52;98558.75;;;17.96;100.00
39129;BME280;24864;49.940;19.770;2022-10-16T09:18:27;98556.69;;;17.89;100.00
39129;BME280;24864;49.940;19.770;2022-10-16T09:21:03;98564.81;;;17.67;100.00
39129;BME280;24864;49.940;19.770;2022-10-16T09:23:34;98558.53;;;17.71;100.00
39129;BME280;24864;49.940;19.770;2022-10-16T09:26:05;98561.78;;;17.83;100.00
39129;BME280;24864;49.940;19.770;2022-10-16T09:28:37;98558.81;;;18.07;100.00
39129;BME280;24864;49.940;19.770;2022-10-16T09:31:10;98567.59;;;18.23;100.00
39129;BME280;24864;49.940;19.770;2022-10-16T09:33:41;98572.88;;;18.50;100.00
39129;BME280;24864;49.940;19.770;2022-10-16T09:36:10;98570.22;;;18.79;100.00
39129;BME280;24864;49.940;19.770;2022-10-16T09:38:39;98571.03;;;18.87;100.00
39129;BME280;24864;49.940;19.770;2022-10-16T09:41:15;98571.97;;;19.20;100.00
39129;BME280;24864;49.940;19.770;2022-10-16T09:43:48;98562.47;;;19.32;100.00
39129;BME280;24864;49.940;19.770;2022-10-16T09:46:25;98579.13;;;19.75;100.00
39129;BME280;24864;49.940;19.770;2022-10-16T09:48:56;98573.13;;;20.34;100.00
39129;BME280;24864;49.940;19.770;2022-10-16T09:51:26;98572.69;;;20.54;99.93
39129;BME280;24864;49.940;19.770;2022-10-16T09:53:56;98567.94;;;20.47;100.00
39129;BME280;24864;49.940;19.770;2022-10-16T09:56:26;98577.84;;;20.48;100.00
39129;BME280;24864;49.940;19.770;2022-10-16T09:58:56;98584.56;;;20.51;100.00
39129;BME280;24864;49.940;19.770;2022-10-16T10:01:30;98577.41;;;20.61;95.46
39129;BME280;24864;49.940;19.770;2022-10-16T10:03:59;98580.88;;;20.86;96.96
39129;BME280;24864;49.940;19.770;2022-10-16T10:06:30;98584.31;;;21.12;98.83
39129;BME280;24864;49.940;19.770;2022-10-16T10:09:04;98583.47;;;21.23;94.65
39129;BME280;24864;49.940;19.770;2022-10-16T10:11:52;98583.25;;;21.59;83.90
39129;BME280;24864;49.940;19.770;2022-10-16T10:14:23;98583.66;;;21.54;78.52
39129;BME280;24864;49.940;19.770;2022-10-16T10:17:10;98582.66;;;21.86;79.84
39129;BME280;24864;49.940;19.770;2022-10-16T10:19:40;98585.00;;;22.29;77.63
39129;BME280;24864;49.940;19.770;2022-10-16T10:22:22;98591.59;;;22.81;77.30
39129;BME280;24864;49.940;19.770;2022-10-16T10:25:11;98582.78;;;22.13;73.85
39129;BME280;24864;49.940;19.770;2022-10-16T10:27:48;98592.31;;;22.12;74.56
39129;BME280;24864;49.940;19.770;2022-10-16T10:30:23;98589.84;;;21.79;77.56
39129;BME280;24864;49.940;19.770;2022-10-16T10:33:05;98589.84;;;21.79;76.18
39129;BME280;24864;49.940;19.770;2022-10-16T10:35:43;98588.03;;;21.58;77.52
39129;BME280;24864;49.940;19.770;2022-10-16T10:38:24;98584.06;;;21.56;78.65
39129;BME280;24864;49.940;19.770;2022-10-16T10:41:04;98587.56;;;21.67;77.26
39129;BME280;24864;49.940;19.770;2022-10-16T10:43:52;98582.69;;;21.82;78.24
39129;BME280;24864;49.940;19.770;2022-10-16T10:46:27;98582.31;;;21.76;77.24
39129;BME280;24864;49.940;19.770;2022-10-16T10:49:13;98578.44;;;21.63;78.10
39129;BME280;24864;49.940;19.770;2022-10-16T10:51:51;98582.88;;;21.49;79.46
39129;BME280;24864;49.940;19.770;2022-10-16T10:54:25;98587.34;;;21.36;82.27
39129;BME280;24864;49.940;19.770;2022-10-16T10:56:59;98578.69;;;21.27;80.29
39129;BME280;24864;49.940;19.770;2022-10-16T10:59:52;98580.81;;;21.01;82.79
39129;BME280;24864;49.940;19.770;2022-10-16T11:02:32;98574.50;;;21.00;81.73
39129;BME280;24864;49.940;19.770;2022-10-16T11:05:31;98584.47;;;20.80;82.06
39129;BME280;24864;49.940;19.770;2022-10-16T11:08:07;98582.16;;;20.64;82.00
39129;BME280;24864;49.940;19.770;2022-10-16T11:10:44;98582.16;;;20.57;83.32
39129;BME280;24864;49.940;19.770;2022-10-16T11:13:20;98581.41;;;20.52;80.92
39129;BME280;24864;49.940;19.770;2022-10-16T11:15:53;98586.16;;;20.41;81.02
39129;BME280;24864;49.940;19.770;2022-10-16T11:18:29;98587.00;;;20.31;82.86
39129;BME280;24864;49.940;19.770;2022-10-16T11:21:02;98574.34;;;20.22;83.81
39129;BME280;24864;49.940;19.770;2022-10-16T11:23:36;98579.09;;;20.18;82.72
39129;BME280;24864;49.940;19.770;2022-10-16T11:26:11;98568.81;;;20.15;83.44
39129;BME280;24864;49.940;19.770;2022-10-16T11:28:45;98577.91;;;20.19;85.11
39129;BME280;24864;49.940;19.770;2022-10-16T11:31:18;98575.16;;;20.19;83.38
39129;BME280;24864;49.940;19.770;2022-10-16T11:33:54;98574.75;;;20.17;83.96
39129;BME280;24864;49.940;19.770;2022-10-16T11:36:31;98571.22;;;19.92;83.44
39129;BME280;24864;49.940;19.770;2022-10-16T11:39:07;98579.13;;;20.04;83.34
39129;BME280;24864;49.940;19.770;2022-10-16T11:41:42;98572.81;;;19.96;84.02
39129;BME280;24864;49.940;19.770;2022-10-16T11:44:31;98583.06;;;20.06;88.19
39129;BME280;24864;49.940;19.770;2022-10-16T11:47:10;98579.13;;;19.89;86.17
39129;BME280;24864;49.940;19.770;2022-10-16T11:50:01;98581.53;;;19.87;87.15
39129;BME280;24864;49.940;19.770;2022-10-16T11:52:36;98580.72;;;19.83;84.68
39129;BME280;24864;49.940;19.770;2022-10-16T11:55:14;98583.09;;;19.85;85.56
39129;BME280;24864;49.940;19.770;2022-10-16T11:57:46;98580.69;;;19.76;85.27
39129;BME280;24864;49.940;19.770;2022-10-16T12:00:21;98585.44;;;19.72;86.17
39129;BME280;24864;49.940;19.770;2022-10-16T12:02:58;98582.66;;;19.72;86.03
39129;BME280;24864;49.940;19.770;2022-10-16T12:05:33;98588.59;;;19.70;87.19
39129;BME280;24864;49.940;19.770;2022-10-16T12:08:09;98590.97;;;19.72;88.19
39129;BME280;24864;49.940;19.770;2022-10-16T12:10:40;98591.75;;;19.76;87.20
39129;BME280;24864;49.940;19.770;2022-10-16T12:13:29;98588.97;;;19.80;89.82
39129;BME280;24864;49.940;19.770;2022-10-16T12:16:05;98587.44;;;19.75;89.27
39129;BME280;24864;49.940;19.770;2022-10-16T12:18:33;98589.38;;;19.78;92.83
39129;BME280;24864;49.940;19.770;2022-10-16T12:21:02;98588.19;;;19.68;96.68
39129;BME280;24864;49.940;19.770;2022-10-16T12:23:37;98587.44;;;19.71;94.02
39129;BME280;24864;49.940;19.770;2022-10-16T12:26:06;98595.72;;;19.68;98.58
39129;BME280;24864;49.940;19.770;2022-10-16T12:28:34;98582.25;;;19.41;90.75
39129;BME280;24864;49.940;19.770;2022-10-16T12:31:04;98590.94;;;19.36;91.80
39129;BME280;24864;49.940;19.770;2022-10-16T12:33:34;98590.16;;;19.46;91.62
39129;BME280;24864;49.940;19.770;2022-10-16T12:36:06;98592.50;;;19.26;91.53
39129;BME280;24864;49.940;19.770;2022-10-16T12:38:45;98589.34;;;19.35;91.66
39129;BME280;24864;49.940;19.770;2022-10-16T12:41:24;98591.75;;;19.47;92.55
39129;BME280;24864;49.940;19.770;2022-10-16T12:43:53;98598.88;;;19.55;93.18
39129;BME280;24864;49.940;19.770;2022-10-16T12:46:35;98600.03;;;19.47;92.73
39129;BME280;24864;49.940;19.770;2022-10-16T12:49:14;98596.47;;;19.50;90.45
39129;BME280;24864;49.940;19.770;2022-10-16T12:51:47;98605.19;;;19.52;90.49
39129;BME280;24864;49.940;19.770;2022-10-16T12:54:19;98609.94;;;19.59;89.82
39129;BME280;24864;49.940;19.770;2022-10-16T12:57:03;98605.19;;;19.52;89.07
39129;BME280;24864;49.940;19.770;2022-10-16T12:59:42;98602.03;;;19.43;89.22
39129;BME280;24864;49.940;19.770;2022-10-16T13:02:56;98605.16;;;19.38;89.25
39129;BME280;24864;49.940;19.770;2022-10-16T13:05:43;98608.31;;;19.40;91.05
39129;BME280;24864;49.940;19.770;2022-10-16T13:08:29;98608.31;;;19.40;91.32
39129;BME280;24864;49.940;19.770;2022-10-16T13:11:08;98609.91;;;19.37;90.81
39129;BME280;24864;49.940;19.770;2022-10-16T13:13:57;98621.72;;;19.31;89.89